sensor_id;sensor_type;location;lat;lon;timestamp;P1;durP1;ratioP1;P2;durP2;ratioP2
4049;SDS011;2039;50.894;6.888;2022-12-29T00:11:33;65.82;;;10.68;;
4049;SDS011;2039;50.894;6.888;2022-12-29T00:14:43;66.30;;;11.82;;
4049;SDS011;2039;50.894;6.888;2022-12-29T00:28:27;68.28;;;15.75;;
4049;SDS011;2039;50.894;6.888;2022-12-29T00:31:21;66.45;;;12.85;;
4049;SDS011;2039;50.894;6.888;2022-12-29T00:37:31;67.10;;;13.18;;
4049;SDS011;2039;50.894;6.888;2022-12-29T00:55:35;66.40;;;13.00;;
4049;SDS011;2039;50.894;6.888;2022-12-29T01:11:51;66.40;;;10.93;;
4049;SDS011;2039;50.894;6.888;2022-12-29T01:34:00;66.38;;;10.77;;
4049;SDS011;2039;50.894;6.888;2022-12-29T01:50:59;67.45;;;9.65;;
4049;SDS011;2039;50.894;6.888;2022-12-29T01:53:31;66.53;;;9.93;;
4049;SDS011;2039;50.894;6.888;2022-12-29T02:10:40;66.45;;;7.95;;
4049;SDS011;2039;50.894;6.888;2022-12-29T02:27:24;65.10;;;6.25;;
4049;SDS011;2039;50.894;6.888;2022-12-29T02:50:42;65.43;;;8.15;;
4049;SDS011;2039;50.894;6.888;2022-12-29T02:53:36;68.57;;;9.10;;
4049;SDS011;2039;50.894;6.888;2022-12-29T02:59:39;66.38;;;11.65;;
4049;SDS011;2039;50.894;6.888;2022-12-29T03:11:21;67.20;;;13.43;;
4049;SDS011;2039;50.894;6.888;2022-12-29T03:17:51;67.47;;;14.27;;
4049;SDS011;2039;50.894;6.888;2022-12-29T03:23:47;66.53;;;12.55;;
4049;SDS011;2039;50.894;6.888;2022-12-29T03:26:45;65.35;;;9.25;;
4049;SDS011;2039;50.894;6.888;2022-12-29T03:32:19;65.82;;;10.05;;
4049;SDS011;2039;50.894;6.888;2022-12-29T03:35:25;67.45;;;14.13;;
4049;SDS011;2039;50.894;6.888;2022-12-29T03:45:47;66.82;;;13.13;;
4049;SDS011;2039;50.894;6.888;2022-12-29T03:51:46;66.18;;;11.48;;
4049;SDS011;2039;50.894;6.888;2022-12-29T03:55:14;66.75;;;11.98;;
4049;SDS011;2039;50.894;6.888;2022-12-29T03:58:20;66.63;;;9.73;;
4049;SDS011;2039;50.894;6.888;2022-12-29T04:01:10;66.00;;;10.85;;
4049;SDS011;2039;50.894;6.888;2022-12-29T04:03:49;66.40;;;10.85;;
4049;SDS011;2039;50.894;6.888;2022-12-29T04:06:24;68.72;;;15.63;;
4049;SDS011;2039;50.894;6.888;2022-12-29T04:08:53;67.10;;;12.25;;
4049;SDS011;2039;50.894;6.888;2022-12-29T04:11:22;67.88;;;12.98;;
4049;SDS011;2039;50.894;6.888;2022-12-29T04:14:02;66.07;;;11.57;;
4049;SDS011;2039;50.894;6.888;2022-12-29T04:17:04;67.78;;;14.60;;
4049;SDS011;2039;50.894;6.888;2022-12-29T04:19:47;66.68;;;11.52;;
4049;SDS011;2039;50.894;6.888;2022-12-29T04:23:01;66.57;;;12.88;;
4049;SDS011;2039;50.894;6.888;2022-12-29T04:28:58;66.78;;;12.70;;
4049;SDS011;2039;50.894;6.888;2022-12-29T04:31:45;68.90;;;15.40;;
4049;SDS011;2039;50.894;6.888;2022-12-29T04:34:14;69.65;;;20.52;;
4049;SDS011;2039;50.894;6.888;2022-12-29T04:36:43;68.10;;;15.02;;
4049;SDS011;2039;50.894;6.888;2022-12-29T04:39:08;69.10;;;13.20;;
4049;SDS011;2039;50.894;6.888;2022-12-29T04:41:34;67.10;;;12.17;;
4049;SDS011;2039;50.894;6.888;2022-12-29T04:44:00;67.17;;;10.00;;
4049;SDS011;2039;50.894;6.888;2022-12-29T04:46:26;67.17;;;12.63;;
4049;SDS011;2039;50.894;6.888;2022-12-29T04:48:54;65.80;;;10.23;;
4049;SDS011;2039;50.894;6.888;2022-12-29T04:51:20;67.90;;;12.35;;
4049;SDS011;2039;50.894;6.888;2022-12-29T04:53:46;67.27;;;13.43;;
4049;SDS011;2039;50.894;6.888;2022-12-29T04:56:12;68.80;;;13.93;;
4049;SDS011;2039;50.894;6.888;2022-12-29T04:58:37;68.83;;;9.40;;
4049;SDS011;2039;50.894;6.888;2022-12-29T05:01:03;68.47;;;11.37;;
4049;SDS011;2039;50.894;6.888;2022-12-29T05:03:29;68.13;;;10.67;;
4049;SDS011;2039;50.894;6.888;2022-12-29T05:05:55;67.20;;;8.83;;
4049;SDS011;2039;50.894;6.888;2022-12-29T05:08:24;66.70;;;8.80;;
4049;SDS011;2039;50.894;6.888;2022-12-29T05:10:50;68.72;;;8.98;;
4049;SDS011;2039;50.894;6.888;2022-12-29T05:13:17;67.20;;;7.53;;
4049;SDS011;2039;50.894;6.888;2022-12-29T05:15:50;68.15;;;8.13;;
4049;SDS011;2039;50.894;6.888;2022-12-29T05:18:16;66.10;;;7.40;;
4049;SDS011;2039;50.894;6.888;2022-12-29T05:20:43;65.40;;;6.43;;
4049;SDS011;2039;50.894;6.888;2022-12-29T05:23:09;65.67;;;7.40;;
4049;SDS011;2039;50.894;6.888;2022-12-29T05:25:34;67.17;;;6.73;;
4049;SDS011;2039;50.894;6.888;2022-12-29T05:28:00;65.60;;;6.63;;
4049;SDS011;2039;50.894;6.888;2022-12-29T05:30:26;64.70;;;6.10;;
4049;SDS011;2039;50.894;6.888;2022-12-29T05:32:51;65.37;;;6.60;;
4049;SDS011;2039;50.894;6.888;2022-12-29T05:35:17;64.37;;;6.13;;
4049;SDS011;2039;50.894;6.888;2022-12-29T05:37:43;66.67;;;6.50;;
4049;SDS011;2039;50.894;6.888;2022-12-29T05:40:09;64.90;;;6.20;;
4049;SDS011;2039;50.894;6.888;2022-12-29T05:42:35;65.50;;;5.82;;
4049;SDS011;2039;50.894;6.888;2022-12-29T05:45:01;65.20;;;7.13;;
4049;SDS011;2039;50.894;6.888;2022-12-29T05:47:26;65.63;;;5.77;;
4049;SDS011;2039;50.894;6.888;2022-12-29T05:49:52;64.77;;;5.80;;
4049;SDS011;2039;50.894;6.888;2022-12-29T05:52:18;66.20;;;6.40;;
4049;SDS011;2039;50.894;6.888;2022-12-29T05:54:43;64.90;;;5.73;;
4049;SDS011;2039;50.894;6.888;2022-12-29T05:57:09;64.97;;;5.80;;
4049;SDS011;2039;50.894;6.888;2022-12-29T05:59:35;65.90;;;7.13;;
4049;SDS011;2039;50.894;6.888;2022-12-29T06:02:00;66.37;;;5.93;;
4049;SDS011;2039;50.894;6.888;2022-12-29T06:04:26;64.70;;;5.77;;
4049;SDS011;2039;50.894;6.888;2022-12-29T06:06:52;67.97;;;7.30;;
4049;SDS011;2039;50.894;6.888;2022-12-29T06:09:17;66.60;;;7.57;;
4049;SDS011;2039;50.894;6.888;2022-12-29T06:11:43;68.07;;;10.20;;
4049;SDS011;2039;50.894;6.888;2022-12-29T06:14:09;66.10;;;9.63;;
4049;SDS011;2039;50.894;6.888;2022-12-29T06:16:35;68.40;;;10.05;;
4049;SDS011;2039;50.894;6.888;2022-12-29T06:19:01;66.63;;;9.30;;
4049;SDS011;2039;50.894;6.888;2022-12-29T06:21:26;66.70;;;10.67;;
4049;SDS011;2039;50.894;6.888;2022-12-29T06:23:53;66.20;;;9.90;;
4049;SDS011;2039;50.894;6.888;2022-12-29T06:26:19;67.20;;;10.63;;
4049;SDS011;2039;50.894;6.888;2022-12-29T06:28:44;67.43;;;8.63;;
4049;SDS011;2039;50.894;6.888;2022-12-29T06:31:10;66.20;;;8.83;;
4049;SDS011;2039;50.894;6.888;2022-12-29T06:33:36;64.90;;;5.32;;
4049;SDS011;2039;50.894;6.888;2022-12-29T06:36:04;65.18;;;5.88;;
4049;SDS011;2039;50.894;6.888;2022-12-29T06:38:30;65.77;;;7.07;;
4049;SDS011;2039;50.894;6.888;2022-12-29T06:40:56;64.97;;;7.40;;
4049;SDS011;2039;50.894;6.888;2022-12-29T06:43:22;65.60;;;8.53;;
4049;SDS011;2039;50.894;6.888;2022-12-29T06:45:47;66.77;;;7.93;;
4049;SDS011;2039;50.894;6.888;2022-12-29T06:48:13;66.43;;;10.07;;
4049;SDS011;2039;50.894;6.888;2022-12-29T06:50:39;68.10;;;7.60;;
4049;SDS011;2039;50.894;6.888;2022-12-29T06:53:04;66.20;;;7.10;;
4049;SDS011;2039;50.894;6.888;2022-12-29T06:55:30;66.97;;;5.90;;
4049;SDS011;2039;50.894;6.888;2022-12-29T06:57:56;65.90;;;6.37;;
4049;SDS011;2039;50.894;6.888;2022-12-29T07:00:23;71.65;;;6.72;;
4049;SDS011;2039;50.894;6.888;2022-12-29T07:02:49;65.72;;;7.22;;
4049;SDS011;2039;50.894;6.888;2022-12-29T07:05:18;66.57;;;10.70;;
4049;SDS011;2039;50.894;6.888;2022-12-29T07:07:44;70.05;;;12.18;;
4049;SDS011;2039;50.894;6.888;2022-12-29T07:10:09;66.57;;;7.33;;
4049;SDS011;2039;50.894;6.888;2022-12-29T07:12:35;65.87;;;7.43;;
4049;SDS011;2039;50.894;6.888;2022-12-29T07:15:01;65.50;;;6.50;;
4049;SDS011;2039;50.894;6.888;2022-12-29T07:17:27;65.80;;;6.40;;
4049;SDS011;2039;50.894;6.888;2022-12-29T07:19:52;66.30;;;5.53;;
4049;SDS011;2039;50.894;6.888;2022-12-29T07:22:18;66.50;;;6.40;;
4049;SDS011;2039;50.894;6.888;2022-12-29T07:24:44;66.77;;;8.07;;
4049;SDS011;2039;50.894;6.888;2022-12-29T07:27:09;68.60;;;4.88;;
4049;SDS011;2039;50.894;6.888;2022-12-29T07:29:38;68.20;;;10.30;;
4049;SDS011;2039;50.894;6.888;2022-12-29T07:32:04;65.60;;;7.32;;
4049;SDS011;2039;50.894;6.888;2022-12-29T07:34:30;68.60;;;6.67;;
4049;SDS011;2039;50.894;6.888;2022-12-29T07:36:55;66.83;;;6.77;;
4049;SDS011;2039;50.894;6.888;2022-12-29T07:39:21;66.77;;;5.43;;
4049;SDS011;2039;50.894;6.888;2022-12-29T07:41:46;65.50;;;5.90;;
4049;SDS011;2039;50.894;6.888;2022-12-29T07:44:12;65.67;;;5.53;;
4049;SDS011;2039;50.894;6.888;2022-12-29T07:46:38;65.50;;;6.87;;
4049;SDS011;2039;50.894;6.888;2022-12-29T07:49:03;65.00;;;5.53;;
4049;SDS011;2039;50.894;6.888;2022-12-29T07:51:29;65.70;;;6.20;;
4049;SDS011;2039;50.894;6.888;2022-12-29T07:53:56;65.53;;;5.82;;
4049;SDS011;2039;50.894;6.888;2022-12-29T07:56:24;67.82;;;6.30;;
4049;SDS011;2039;50.894;6.888;2022-12-29T07:58:49;65.67;;;5.70;;
4049;SDS011;2039;50.894;6.888;2022-12-29T08:01:15;66.17;;;6.67;;
4049;SDS011;2039;50.894;6.888;2022-12-29T08:03:41;68.23;;;5.50;;
4049;SDS011;2039;50.894;6.888;2022-12-29T08:06:10;71.75;;;6.90;;
4049;SDS011;2039;50.894;6.888;2022-12-29T08:08:36;67.15;;;5.82;;
4049;SDS011;2039;50.894;6.888;2022-12-29T08:11:02;68.07;;;8.03;;
4049;SDS011;2039;50.894;6.888;2022-12-29T08:13:27;68.55;;;6.10;;
4049;SDS011;2039;50.894;6.888;2022-12-29T08:15:53;67.77;;;6.57;;
4049;SDS011;2039;50.894;6.888;2022-12-29T08:18:22;66.50;;;6.67;;
4049;SDS011;2039;50.894;6.888;2022-12-29T08:20:47;70.65;;;5.82;;
4049;SDS011;2039;50.894;6.888;2022-12-29T08:23:13;65.57;;;6.23;;
4049;SDS011;2039;50.894;6.888;2022-12-29T08:25:42;70.00;;;8.23;;
4049;SDS011;2039;50.894;6.888;2022-12-29T08:28:10;70.07;;;8.05;;
4049;SDS011;2039;50.894;6.888;2022-12-29T08:30:35;69.23;;;6.53;;
4049;SDS011;2039;50.894;6.888;2022-12-29T08:33:01;69.40;;;8.17;;
4049;SDS011;2039;50.894;6.888;2022-12-29T08:35:27;71.07;;;7.90;;
4049;SDS011;2039;50.894;6.888;2022-12-29T08:37:53;69.37;;;8.87;;
4049;SDS011;2039;50.894;6.888;2022-12-29T08:40:18;66.47;;;7.80;;
4049;SDS011;2039;50.894;6.888;2022-12-29T08:42:44;67.63;;;7.97;;
4049;SDS011;2039;50.894;6.888;2022-12-29T08:45:10;72.17;;;8.10;;
4049;SDS011;2039;50.894;6.888;2022-12-29T08:47:35;67.10;;;7.63;;
4049;SDS011;2039;50.894;6.888;2022-12-29T08:50:04;68.40;;;8.13;;
4049;SDS011;2039;50.894;6.888;2022-12-29T08:52:30;72.97;;;6.75;;
4049;SDS011;2039;50.894;6.888;2022-12-29T08:54:56;68.87;;;6.73;;
4049;SDS011;2039;50.894;6.888;2022-12-29T08:57:21;66.93;;;6.37;;
4049;SDS011;2039;50.894;6.888;2022-12-29T08:59:47;70.23;;;7.10;;
4049;SDS011;2039;50.894;6.888;2022-12-29T09:02:13;66.37;;;5.63;;
4049;SDS011;2039;50.894;6.888;2022-12-29T09:04:38;66.90;;;5.17;;
4049;SDS011;2039;50.894;6.888;2022-12-29T09:07:04;68.27;;;5.90;;
4049;SDS011;2039;50.894;6.888;2022-12-29T09:09:30;69.38;;;6.30;;
4049;SDS011;2039;50.894;6.888;2022-12-29T09:11:56;70.95;;;6.55;;
4049;SDS011;2039;50.894;6.888;2022-12-29T09:14:25;72.13;;;6.20;;
4049;SDS011;2039;50.894;6.888;2022-12-29T09:16:54;68.07;;;6.03;;
4049;SDS011;2039;50.894;6.888;2022-12-29T09:19:38;67.18;;;4.35;;
4049;SDS011;2039;50.894;6.888;2022-12-29T09:22:04;68.20;;;4.90;;
4049;SDS011;2039;50.894;6.888;2022-12-29T09:24:30;71.10;;;5.17;;
4049;SDS011;2039;50.894;6.888;2022-12-29T09:26:55;67.17;;;5.33;;
4049;SDS011;2039;50.894;6.888;2022-12-29T09:29:21;69.27;;;5.00;;
4049;SDS011;2039;50.894;6.888;2022-12-29T09:31:48;68.72;;;4.68;;
4049;SDS011;2039;50.894;6.888;2022-12-29T09:34:13;70.10;;;4.00;;
4049;SDS011;2039;50.894;6.888;2022-12-29T09:36:40;67.07;;;3.78;;
4049;SDS011;2039;50.894;6.888;2022-12-29T09:39:05;67.80;;;4.30;;
4049;SDS011;2039;50.894;6.888;2022-12-29T09:41:36;66.50;;;3.53;;
4049;SDS011;2039;50.894;6.888;2022-12-29T09:44:31;66.18;;;3.53;;
4049;SDS011;2039;50.894;6.888;2022-12-29T09:47:06;70.32;;;3.60;;
4049;SDS011;2039;50.894;6.888;2022-12-29T09:49:43;66.03;;;3.60;;
4049;SDS011;2039;50.894;6.888;2022-12-29T09:52:36;73.70;;;3.75;;
4049;SDS011;2039;50.894;6.888;2022-12-29T09:55:08;69.35;;;3.63;;
4049;SDS011;2039;50.894;6.888;2022-12-29T10:00:22;73.45;;;3.88;;
4049;SDS011;2039;50.894;6.888;2022-12-29T10:02:59;65.50;;;3.70;;
4049;SDS011;2039;50.894;6.888;2022-12-29T10:05:40;67.13;;;3.75;;
4049;SDS011;2039;50.894;6.888;2022-12-29T10:08:29;66.70;;;3.53;;
4049;SDS011;2039;50.894;6.888;2022-12-29T10:24:51;70.55;;;3.90;;
4049;SDS011;2039;50.894;6.888;2022-12-29T10:27:21;71.07;;;4.10;;
4049;SDS011;2039;50.894;6.888;2022-12-29T10:29:52;67.15;;;3.60;;
4049;SDS011;2039;50.894;6.888;2022-12-29T10:32:30;66.18;;;3.65;;
4049;SDS011;2039;50.894;6.888;2022-12-29T10:35:06;70.13;;;3.50;;
4049;SDS011;2039;50.894;6.888;2022-12-29T10:37:48;68.53;;;3.30;;
4049;SDS011;2039;50.894;6.888;2022-12-29T10:43:51;67.85;;;3.75;;
4049;SDS011;2039;50.894;6.888;2022-12-29T10:45:54;65.90;;;3.15;;
4049;SDS011;2039;50.894;6.888;2022-12-29T10:48:32;67.53;;;3.53;;
4049;SDS011;2039;50.894;6.888;2022-12-29T10:51:00;65.70;;;3.60;;
4049;SDS011;2039;50.894;6.888;2022-12-29T10:53:38;64.38;;;3.25;;
4049;SDS011;2039;50.894;6.888;2022-12-29T10:58:52;68.30;;;3.88;;
4049;SDS011;2039;50.894;6.888;2022-12-29T11:01:21;68.05;;;4.07;;
4049;SDS011;2039;50.894;6.888;2022-12-29T11:03:51;68.20;;;4.05;;
4049;SDS011;2039;50.894;6.888;2022-12-29T11:06:42;70.70;;;4.25;;
4049;SDS011;2039;50.894;6.888;2022-12-29T11:09:10;66.18;;;3.63;;
4049;SDS011;2039;50.894;6.888;2022-12-29T11:11:39;67.78;;;4.10;;
4049;SDS011;2039;50.894;6.888;2022-12-29T11:14:13;69.20;;;4.10;;
4049;SDS011;2039;50.894;6.888;2022-12-29T11:16:42;65.15;;;3.70;;
4049;SDS011;2039;50.894;6.888;2022-12-29T11:19:23;68.80;;;4.40;;
4049;SDS011;2039;50.894;6.888;2022-12-29T11:21:50;65.97;;;3.63;;
4049;SDS011;2039;50.894;6.888;2022-12-29T11:24:21;67.60;;;3.42;;
4049;SDS011;2039;50.894;6.888;2022-12-29T11:26:49;75.00;;;3.80;;
4049;SDS011;2039;50.894;6.888;2022-12-29T11:29:25;67.40;;;3.50;;
4049;SDS011;2039;50.894;6.888;2022-12-29T11:31:54;66.22;;;3.30;;
4049;SDS011;2039;50.894;6.888;2022-12-29T11:34:32;68.25;;;3.55;;
4049;SDS011;2039;50.894;6.888;2022-12-29T11:37:06;68.90;;;3.65;;
4049;SDS011;2039;50.894;6.888;2022-12-29T11:42:13;69.20;;;3.97;;
4049;SDS011;2039;50.894;6.888;2022-12-29T11:44:44;79.57;;;10.68;;
4049;SDS011;2039;50.894;6.888;2022-12-29T11:50:15;67.05;;;4.03;;
4049;SDS011;2039;50.894;6.888;2022-12-29T11:53:04;67.40;;;4.03;;
4049;SDS011;2039;50.894;6.888;2022-12-29T11:55:39;66.95;;;4.82;;
4049;SDS011;2039;50.894;6.888;2022-12-29T11:58:05;66.27;;;3.97;;
4049;SDS011;2039;50.894;6.888;2022-12-29T12:00:32;67.53;;;4.30;;
4049;SDS011;2039;50.894;6.888;2022-12-29T12:03:15;70.35;;;4.05;;
4049;SDS011;2039;50.894;6.888;2022-12-29T12:05:50;67.05;;;4.20;;
4049;SDS011;2039;50.894;6.888;2022-12-29T12:11:03;68.13;;;3.90;;
4049;SDS011;2039;50.894;6.888;2022-12-29T12:13:44;66.93;;;4.15;;
4049;SDS011;2039;50.894;6.888;2022-12-29T12:16:43;66.80;;;3.65;;
4049;SDS011;2039;50.894;6.888;2022-12-29T12:19:17;67.72;;;3.88;;
4049;SDS011;2039;50.894;6.888;2022-12-29T12:21:54;66.35;;;3.42;;
4049;SDS011;2039;50.894;6.888;2022-12-29T12:24:59;66.97;;;4.38;;
4049;SDS011;2039;50.894;6.888;2022-12-29T12:27:34;67.18;;;4.78;;
4049;SDS011;2039;50.894;6.888;2022-12-29T12:35:11;66.65;;;3.10;;
4049;SDS011;2039;50.894;6.888;2022-12-29T12:43:09;72.55;;;3.95;;
4049;SDS011;2039;50.894;6.888;2022-12-29T13:00:11;67.05;;;3.47;;
4049;SDS011;2039;50.894;6.888;2022-12-29T13:10:55;69.65;;;3.75;;
4049;SDS011;2039;50.894;6.888;2022-12-29T13:22:12;67.82;;;4.00;;
4049;SDS011;2039;50.894;6.888;2022-12-29T13:30:33;67.07;;;3.28;;
4049;SDS011;2039;50.894;6.888;2022-12-29T13:36:23;67.78;;;3.78;;
4049;SDS011;2039;50.894;6.888;2022-12-29T13:38:46;66.68;;;3.40;;
4049;SDS011;2039;50.894;6.888;2022-12-29T13:41:24;68.72;;;3.83;;
4049;SDS011;2039;50.894;6.888;2022-12-29T13:43:55;71.20;;;4.70;;
4049;SDS011;2039;50.894;6.888;2022-12-29T13:46:30;67.80;;;3.55;;
4049;SDS011;2039;50.894;6.888;2022-12-29T13:49:11;67.03;;;4.05;;
4049;SDS011;2039;50.894;6.888;2022-12-29T13:59:57;67.95;;;3.47;;
4049;SDS011;2039;50.894;6.888;2022-12-29T14:08:01;65.85;;;3.40;;
4049;SDS011;2039;50.894;6.888;2022-12-29T14:10:32;67.68;;;4.00;;
4049;SDS011;2039;50.894;6.888;2022-12-29T14:15:50;67.72;;;3.47;;
4049;SDS011;2039;50.894;6.888;2022-12-29T14:18:21;68.97;;;3.85;;
4049;SDS011;2039;50.894;6.888;2022-12-29T14:20:50;67.45;;;4.20;;
4049;SDS011;2039;50.894;6.888;2022-12-29T14:23:41;66.20;;;3.20;;
4049;SDS011;2039;50.894;6.888;2022-12-29T14:26:12;67.70;;;4.15;;
4049;SDS011;2039;50.894;6.888;2022-12-29T14:28:39;71.20;;;3.40;;
4049;SDS011;2039;50.894;6.888;2022-12-29T14:36:40;69.57;;;4.10;;
4049;SDS011;2039;50.894;6.888;2022-12-29T14:44:50;67.90;;;4.45;;
4049;SDS011;2039;50.894;6.888;2022-12-29T14:49:55;69.25;;;4.93;;
4049;SDS011;2039;50.894;6.888;2022-12-29T14:52:45;68.93;;;4.15;;
4049;SDS011;2039;50.894;6.888;2022-12-29T14:58:05;69.68;;;4.88;;
4049;SDS011;2039;50.894;6.888;2022-12-29T15:00:51;68.40;;;4.20;;
4049;SDS011;2039;50.894;6.888;2022-12-29T15:03:20;66.53;;;4.05;;
4049;SDS011;2039;50.894;6.888;2022-12-29T15:06:07;69.50;;;4.15;;
4049;SDS011;2039;50.894;6.888;2022-12-29T15:08:40;70.70;;;4.40;;
4049;SDS011;2039;50.894;6.888;2022-12-29T15:11:24;66.80;;;4.07;;
4049;SDS011;2039;50.894;6.888;2022-12-29T15:17:01;70.30;;;3.95;;
4049;SDS011;2039;50.894;6.888;2022-12-29T15:19:35;74.20;;;5.18;;
4049;SDS011;2039;50.894;6.888;2022-12-29T15:22:01;69.75;;;3.97;;
4049;SDS011;2039;50.894;6.888;2022-12-29T15:24:27;68.55;;;4.03;;
4049;SDS011;2039;50.894;6.888;2022-12-29T15:26:54;68.10;;;4.32;;
4049;SDS011;2039;50.894;6.888;2022-12-29T15:29:42;66.15;;;4.07;;
4049;SDS011;2039;50.894;6.888;2022-12-29T15:34:41;66.63;;;3.85;;
4049;SDS011;2039;50.894;6.888;2022-12-29T15:37:08;73.57;;;5.28;;
4049;SDS011;2039;50.894;6.888;2022-12-29T15:39:35;68.10;;;4.78;;
4049;SDS011;2039;50.894;6.888;2022-12-29T15:44:34;69.50;;;4.65;;
4049;SDS011;2039;50.894;6.888;2022-12-29T15:47:05;66.97;;;4.38;;
4049;SDS011;2039;50.894;6.888;2022-12-29T15:49:37;70.68;;;5.30;;
4049;SDS011;2039;50.894;6.888;2022-12-29T15:52:06;71.10;;;5.40;;
4049;SDS011;2039;50.894;6.888;2022-12-29T15:54:33;72.93;;;4.30;;
4049;SDS011;2039;50.894;6.888;2022-12-29T15:56:59;67.63;;;3.60;;
4049;SDS011;2039;50.894;6.888;2022-12-29T15:59:25;73.47;;;4.27;;
4049;SDS011;2039;50.894;6.888;2022-12-29T16:01:59;72.72;;;4.25;;
4049;SDS011;2039;50.894;6.888;2022-12-29T16:04:27;73.63;;;3.80;;
4049;SDS011;2039;50.894;6.888;2022-12-29T16:07:04;70.05;;;4.82;;
4049;SDS011;2039;50.894;6.888;2022-12-29T16:12:14;70.35;;;3.90;;
4049;SDS011;2039;50.894;6.888;2022-12-29T16:14:44;69.07;;;4.28;;
4049;SDS011;2039;50.894;6.888;2022-12-29T16:17:16;72.30;;;5.55;;
4049;SDS011;2039;50.894;6.888;2022-12-29T16:19:50;85.95;;;7.57;;
4049;SDS011;2039;50.894;6.888;2022-12-29T16:22:25;70.38;;;5.03;;
4049;SDS011;2039;50.894;6.888;2022-12-29T16:25:02;66.72;;;4.43;;
4049;SDS011;2039;50.894;6.888;2022-12-29T16:27:32;69.03;;;4.65;;
4049;SDS011;2039;50.894;6.888;2022-12-29T16:30:06;71.18;;;4.57;;
4049;SDS011;2039;50.894;6.888;2022-12-29T16:32:47;66.72;;;4.20;;
4049;SDS011;2039;50.894;6.888;2022-12-29T16:35:19;71.80;;;4.95;;
4049;SDS011;2039;50.894;6.888;2022-12-29T16:37:47;71.85;;;5.30;;
4049;SDS011;2039;50.894;6.888;2022-12-29T16:42:46;67.32;;;4.40;;
4049;SDS011;2039;50.894;6.888;2022-12-29T16:47:45;68.07;;;4.43;;
4049;SDS011;2039;50.894;6.888;2022-12-29T16:50:13;66.25;;;4.43;;
4049;SDS011;2039;50.894;6.888;2022-12-29T16:52:48;71.03;;;4.70;;
4049;SDS011;2039;50.894;6.888;2022-12-29T16:55:17;67.53;;;3.83;;
4049;SDS011;2039;50.894;6.888;2022-12-29T16:57:44;69.03;;;4.25;;
4049;SDS011;2039;50.894;6.888;2022-12-29T17:00:23;70.13;;;5.03;;
4049;SDS011;2039;50.894;6.888;2022-12-29T17:02:53;69.45;;;4.88;;
4049;SDS011;2039;50.894;6.888;2022-12-29T17:05:22;69.45;;;5.00;;
4049;SDS011;2039;50.894;6.888;2022-12-29T17:07:48;67.37;;;4.33;;
4049;SDS011;2039;50.894;6.888;2022-12-29T17:10:14;72.70;;;4.60;;
4049;SDS011;2039;50.894;6.888;2022-12-29T17:12:40;81.43;;;5.47;;
4049;SDS011;2039;50.894;6.888;2022-12-29T17:15:18;68.68;;;4.68;;
4049;SDS011;2039;50.894;6.888;2022-12-29T17:17:50;67.85;;;4.63;;
4049;SDS011;2039;50.894;6.888;2022-12-29T17:20:21;67.68;;;4.55;;
4049;SDS011;2039;50.894;6.888;2022-12-29T17:22:51;69.45;;;5.97;;
4049;SDS011;2039;50.894;6.888;2022-12-29T17:25:21;70.35;;;4.60;;
4049;SDS011;2039;50.894;6.888;2022-12-29T17:27:54;70.20;;;4.95;;
4049;SDS011;2039;50.894;6.888;2022-12-29T17:30:23;72.82;;;5.18;;
4049;SDS011;2039;50.894;6.888;2022-12-29T17:32:51;74.15;;;5.03;;
4049;SDS011;2039;50.894;6.888;2022-12-29T17:35:23;73.32;;;5.78;;
4049;SDS011;2039;50.894;6.888;2022-12-29T17:37:50;69.10;;;4.65;;
4049;SDS011;2039;50.894;6.888;2022-12-29T17:40:20;74.93;;;5.00;;
4049;SDS011;2039;50.894;6.888;2022-12-29T17:42:57;67.78;;;4.68;;
4049;SDS011;2039;50.894;6.888;2022-12-29T17:45:24;71.00;;;5.05;;
4049;SDS011;2039;50.894;6.888;2022-12-29T17:47:51;69.47;;;5.07;;
4049;SDS011;2039;50.894;6.888;2022-12-29T17:50:19;71.93;;;5.05;;
4049;SDS011;2039;50.894;6.888;2022-12-29T17:52:47;71.72;;;4.50;;
4049;SDS011;2039;50.894;6.888;2022-12-29T17:55:18;70.55;;;5.28;;
4049;SDS011;2039;50.894;6.888;2022-12-29T17:57:45;69.30;;;4.70;;
4049;SDS011;2039;50.894;6.888;2022-12-29T18:00:18;67.45;;;4.57;;
4049;SDS011;2039;50.894;6.888;2022-12-29T18:02:57;78.15;;;4.82;;
4049;SDS011;2039;50.894;6.888;2022-12-29T18:05:24;68.25;;;5.55;;
4049;SDS011;2039;50.894;6.888;2022-12-29T18:07:55;70.82;;;5.32;;
4049;SDS011;2039;50.894;6.888;2022-12-29T18:10:24;68.65;;;5.15;;
4049;SDS011;2039;50.894;6.888;2022-12-29T18:12:53;72.28;;;5.25;;
4049;SDS011;2039;50.894;6.888;2022-12-29T18:15:26;71.30;;;5.68;;
4049;SDS011;2039;50.894;6.888;2022-12-29T18:17:59;74.38;;;4.78;;
4049;SDS011;2039;50.894;6.888;2022-12-29T18:20:35;77.50;;;4.93;;
4049;SDS011;2039;50.894;6.888;2022-12-29T18:23:01;73.05;;;5.03;;
4049;SDS011;2039;50.894;6.888;2022-12-29T18:25:30;68.75;;;4.35;;
4049;SDS011;2039;50.894;6.888;2022-12-29T18:28:06;72.97;;;6.00;;
4049;SDS011;2039;50.894;6.888;2022-12-29T18:30:32;69.57;;;5.00;;
4049;SDS011;2039;50.894;6.888;2022-12-29T18:32:58;70.05;;;4.75;;
4049;SDS011;2039;50.894;6.888;2022-12-29T18:36:09;72.73;;;5.00;;
4049;SDS011;2039;50.894;6.888;2022-12-29T18:38:26;71.07;;;5.28;;
4049;SDS011;2039;50.894;6.888;2022-12-29T18:40:53;75.80;;;4.70;;
4049;SDS011;2039;50.894;6.888;2022-12-29T18:43:20;72.47;;;5.40;;
4049;SDS011;2039;50.894;6.888;2022-12-29T18:45:48;73.50;;;5.18;;
4049;SDS011;2039;50.894;6.888;2022-12-29T18:48:14;74.20;;;4.80;;
4049;SDS011;2039;50.894;6.888;2022-12-29T18:50:42;71.85;;;5.13;;
4049;SDS011;2039;50.894;6.888;2022-12-29T18:53:14;76.00;;;7.78;;
4049;SDS011;2039;50.894;6.888;2022-12-29T18:55:44;68.00;;;5.30;;
4049;SDS011;2039;50.894;6.888;2022-12-29T18:58:10;73.70;;;6.10;;
4049;SDS011;2039;50.894;6.888;2022-12-29T19:00:36;75.85;;;5.88;;
4049;SDS011;2039;50.894;6.888;2022-12-29T19:03:04;75.20;;;6.50;;
4049;SDS011;2039;50.894;6.888;2022-12-29T19:05:34;72.50;;;5.57;;
4049;SDS011;2039;50.894;6.888;2022-12-29T19:08:04;71.65;;;5.05;;
4049;SDS011;2039;50.894;6.888;2022-12-29T19:10:31;74.03;;;5.03;;
4049;SDS011;2039;50.894;6.888;2022-12-29T19:12:57;71.55;;;4.93;;
4049;SDS011;2039;50.894;6.888;2022-12-29T19:15:24;73.05;;;5.00;;
4049;SDS011;2039;50.894;6.888;2022-12-29T19:17:54;77.97;;;6.00;;
4049;SDS011;2039;50.894;6.888;2022-12-29T19:22:58;71.15;;;4.60;;
4049;SDS011;2039;50.894;6.888;2022-12-29T19:25:27;70.75;;;4.72;;
4049;SDS011;2039;50.894;6.888;2022-12-29T19:27:53;71.20;;;5.28;;
4049;SDS011;2039;50.894;6.888;2022-12-29T19:30:20;68.85;;;4.30;;
4049;SDS011;2039;50.894;6.888;2022-12-29T19:32:47;70.38;;;5.55;;
4049;SDS011;2039;50.894;6.888;2022-12-29T19:35:17;69.78;;;4.80;;
4049;SDS011;2039;50.894;6.888;2022-12-29T19:37:44;70.00;;;4.80;;
4049;SDS011;2039;50.894;6.888;2022-12-29T19:40:14;68.00;;;5.57;;
4049;SDS011;2039;50.894;6.888;2022-12-29T19:42:41;68.95;;;5.60;;
4049;SDS011;2039;50.894;6.888;2022-12-29T19:45:07;72.00;;;4.60;;
4049;SDS011;2039;50.894;6.888;2022-12-29T19:47:33;68.35;;;4.38;;
4049;SDS011;2039;50.894;6.888;2022-12-29T19:49:59;71.60;;;4.57;;
4049;SDS011;2039;50.894;6.888;2022-12-29T19:52:26;69.40;;;5.05;;
4049;SDS011;2039;50.894;6.888;2022-12-29T19:54:52;70.45;;;4.72;;
4049;SDS011;2039;50.894;6.888;2022-12-29T19:57:19;73.78;;;4.35;;
4049;SDS011;2039;50.894;6.888;2022-12-29T19:59:46;74.20;;;5.82;;
4049;SDS011;2039;50.894;6.888;2022-12-29T20:02:22;70.77;;;3.97;;
4049;SDS011;2039;50.894;6.888;2022-12-29T20:04:50;66.07;;;4.28;;
4049;SDS011;2039;50.894;6.888;2022-12-29T20:07:16;68.88;;;4.65;;
4049;SDS011;2039;50.894;6.888;2022-12-29T20:09:42;67.70;;;4.60;;
4049;SDS011;2039;50.894;6.888;2022-12-29T20:12:09;68.95;;;4.47;;
4049;SDS011;2039;50.894;6.888;2022-12-29T20:14:36;66.97;;;3.75;;
4049;SDS011;2039;50.894;6.888;2022-12-29T20:17:02;66.95;;;4.70;;
4049;SDS011;2039;50.894;6.888;2022-12-29T20:19:29;72.00;;;4.25;;
4049;SDS011;2039;50.894;6.888;2022-12-29T20:21:55;71.95;;;5.30;;
4049;SDS011;2039;50.894;6.888;2022-12-29T20:24:21;69.27;;;5.23;;
4049;SDS011;2039;50.894;6.888;2022-12-29T20:26:47;67.82;;;4.15;;
4049;SDS011;2039;50.894;6.888;2022-12-29T20:29:13;71.72;;;4.47;;
4049;SDS011;2039;50.894;6.888;2022-12-29T20:31:40;72.13;;;5.25;;